sensor_id;sensor_type;location;lat;lon;timestamp;pressure;altitude;pressure_sealevel;temperature;humidity
71778;BME280;59609;52.430;4.668;2023-03-04T00:02:20;102765.53;;;7.61;77.49
71778;BME280;59609;52.430;4.668;2023-03-04T00:04:45;102781.41;;;7.70;76.51
71778;BME280;59609;52.430;4.668;2023-03-04T00:07:11;102766.00;;;7.68;76.59
71778;BME280;59609;52.430;4.668;2023-03-04T00:09:44;102774.75;;;7.60;77.28
71778;BME280;59609;52.430;4.668;2023-03-04T00:12:10;102773.47;;;7.66;76.80
71778;BME280;59609;52.430;4.668;2023-03-04T00:14:36;102770.44;;;7.70;76.77
71778;BME280;59609;52.430;4.668;2023-03-04T00:17:01;102770.22;;;7.73;76.46
71778;BME280;59609;52.430;4.668;2023-03-04T00:19:29;102773.06;;;7.72;77.30
71778;BME280;59609;52.430;4.668;2023-03-04T00:21:54;102771.53;;;7.81;76.60
71778;BME280;59609;52.430;4.668;2023-03-04T00:24:19;102770.81;;;7.64;76.98
71778;BME280;59609;52.430;4.668;2023-03-04T00:26:45;102776.06;;;7.82;76.79
71778;BME280;59609;52.430;4.668;2023-03-04T00:29:10;102775.28;;;7.80;76.54
71778;BME280;59609;52.430;4.668;2023-03-04T00:31:36;102772.09;;;7.73;76.74
71778;BME280;59609;52.430;4.668;2023-03-04T00:34:03;102770.00;;;7.76;76.99
71778;BME280;59609;52.430;4.668;2023-03-04T00:36:29;102770.56;;;7.82;76.38
71778;BME280;59609;52.430;4.668;2023-03-04T00:38:54;102766.59;;;7.73;77.06
71778;BME280;59609;52.430;4.668;2023-03-04T00:41:19;102769.13;;;7.76;77.31
71778;BME280;59609;52.430;4.668;2023-03-04T00:43:45;102768.66;;;7.69;77.62
71778;BME280;59609;52.430;4.668;2023-03-04T00:46:10;102761.81;;;7.62;76.76
71778;BME280;59609;52.430;4.668;2023-03-04T00:48:35;102760.50;;;7.68;77.42
71778;BME280;59609;52.430;4.668;2023-03-04T00:51:02;102770.03;;;7.62;77.63
71778;BME280;59609;52.430;4.668;2023-03-04T00:53:28;102773.94;;;7.72;77.27
71778;BME280;59609;52.430;4.668;2023-03-04T00:55:53;102766.06;;;7.81;76.50
71778;BME280;59609;52.430;4.668;2023-03-04T00:58:18;102771.41;;;7.69;76.55
71778;BME280;59609;52.430;4.668;2023-03-04T01:00:44;102770.91;;;7.77;76.85
71778;BME280;59609;52.430;4.668;2023-03-04T01:03:09;102778.59;;;7.85;77.02
71778;BME280;59609;52.430;4.668;2023-03-04T01:05:34;102775.09;;;7.83;76.53
71778;BME280;59609;52.430;4.668;2023-03-04T01:08:01;102770.69;;;7.80;76.84
71778;BME280;59609;52.430;4.668;2023-03-04T01:10:26;102770.28;;;7.86;77.14
71778;BME280;59609;52.430;4.668;2023-03-04T01:12:52;102768.72;;;7.82;76.31
71778;BME280;59609;52.430;4.668;2023-03-04T01:15:17;102768.66;;;7.69;76.63
71778;BME280;59609;52.430;4.668;2023-03-04T01:17:43;102768.84;;;7.66;77.22
71778;BME280;59609;52.430;4.668;2023-03-04T01:20:09;102762.91;;;7.60;76.75
71778;BME280;59609;52.430;4.668;2023-03-04T01:22:35;102765.72;;;7.58;76.10
71778;BME280;59609;52.430;4.668;2023-03-04T01:25:00;102766.88;;;7.68;75.13
71778;BME280;59609;52.430;4.668;2023-03-04T01:27:26;102761.78;;;7.76;74.32
71778;BME280;59609;52.430;4.668;2023-03-04T01:29:51;102759.25;;;7.73;75.08
71778;BME280;59609;52.430;4.668;2023-03-04T01:32:16;102758.19;;;7.62;75.92
71778;BME280;59609;52.430;4.668;2023-03-04T01:34:42;102745.84;;;7.55;75.67
71778;BME280;59609;52.430;4.668;2023-03-04T01:37:07;102743.69;;;7.60;76.22
71778;BME280;59609;52.430;4.668;2023-03-04T01:39:33;102750.13;;;7.73;75.59
71778;BME280;59609;52.430;4.668;2023-03-04T01:41:59;102748.28;;;7.73;75.76
71778;BME280;59609;52.430;4.668;2023-03-04T01:44:24;102746.91;;;7.66;76.46
71778;BME280;59609;52.430;4.668;2023-03-04T01:46:54;102739.25;;;7.71;76.17
71778;BME280;59609;52.430;4.668;2023-03-04T01:49:20;102734.59;;;7.59;77.26
71778;BME280;59609;52.430;4.668;2023-03-04T01:51:50;102737.75;;;7.53;77.48
71778;BME280;59609;52.430;4.668;2023-03-04T01:54:16;102736.66;;;7.56;77.28
71778;BME280;59609;52.430;4.668;2023-03-04T01:56:44;102736.50;;;7.71;77.24
71778;BME280;59609;52.430;4.668;2023-03-04T02:01:44;102726.91;;;7.64;76.89
71778;BME280;59609;52.430;4.668;2023-03-04T02:04:10;102722.03;;;7.69;77.20
71778;BME280;59609;52.430;4.668;2023-03-04T02:06:37;102720.25;;;7.68;76.80
71778;BME280;59609;52.430;4.668;2023-03-04T02:09:04;102717.66;;;7.53;77.15
71778;BME280;59609;52.430;4.668;2023-03-04T02:11:30;102710.19;;;7.55;77.47
71778;BME280;59609;52.430;4.668;2023-03-04T02:13:56;102707.84;;;7.63;77.59
71778;BME280;59609;52.430;4.668;2023-03-04T02:16:21;102702.59;;;7.72;77.03
71778;BME280;59609;52.430;4.668;2023-03-04T02:18:46;102710.84;;;7.72;76.47
71778;BME280;59609;52.430;4.668;2023-03-04T02:21:27;102708.38;;;7.68;77.62
71778;BME280;59609;52.430;4.668;2023-03-04T02:26:23;102704.75;;;7.67;77.74
71778;BME280;59609;52.430;4.668;2023-03-04T02:28:51;102694.41;;;7.58;78.73
71778;BME280;59609;52.430;4.668;2023-03-04T02:31:27;102687.84;;;7.61;78.11
71778;BME280;59609;52.430;4.668;2023-03-04T02:33:57;102688.56;;;7.50;78.96
71778;BME280;59609;52.430;4.668;2023-03-04T02:36:23;102678.56;;;7.49;78.79
71778;BME280;59609;52.430;4.668;2023-03-04T02:38:50;102684.34;;;7.45;78.11
71778;BME280;59609;52.430;4.668;2023-03-04T02:41:19;102678.28;;;7.54;77.91
71778;BME280;59609;52.430;4.668;2023-03-04T02:43:48;102680.34;;;7.50;77.28
71778;BME280;59609;52.430;4.668;2023-03-04T02:46:14;102672.22;;;7.49;77.79
71778;BME280;59609;52.430;4.668;2023-03-04T02:48:39;102673.09;;;7.49;78.63
71778;BME280;59609;52.430;4.668;2023-03-04T02:51:04;102669.75;;;7.44;79.33
71778;BME280;59609;52.430;4.668;2023-03-04T02:53:30;102670.44;;;7.48;79.06
71778;BME280;59609;52.430;4.668;2023-03-04T02:55:55;102665.97;;;7.47;79.44
71778;BME280;59609;52.430;4.668;2023-03-04T02:58:20;102666.63;;;7.50;78.18
71778;BME280;59609;52.430;4.668;2023-03-04T03:00:46;102664.44;;;7.55;78.51
71778;BME280;59609;52.430;4.668;2023-03-04T03:03:11;102664.72;;;7.65;77.92
71778;BME280;59609;52.430;4.668;2023-03-04T03:05:37;102660.16;;;7.51;78.97
71778;BME280;59609;52.430;4.668;2023-03-04T03:08:03;102668.06;;;7.56;79.02
71778;BME280;59609;52.430;4.668;2023-03-04T03:10:29;102664.69;;;7.38;80.21
71778;BME280;59609;52.430;4.668;2023-03-04T03:12:54;102664.56;;;7.54;79.82
71778;BME280;59609;52.430;4.668;2023-03-04T03:15:20;102664.56;;;7.54;79.60
71778;BME280;59609;52.430;4.668;2023-03-04T03:17:46;102659.88;;;7.42;79.96
71778;BME280;59609;52.430;4.668;2023-03-04T03:20:12;102664.69;;;7.38;80.14
71778;BME280;59609;52.430;4.668;2023-03-04T03:22:38;102664.69;;;7.38;78.58
71778;BME280;59609;52.430;4.668;2023-03-04T03:25:05;102660.28;;;7.50;77.21
71778;BME280;59609;52.430;4.668;2023-03-04T03:27:30;102657.41;;;7.51;77.10
71778;BME280;59609;52.430;4.668;2023-03-04T03:29:59;102655.06;;;7.45;77.56
71778;BME280;59609;52.430;4.668;2023-03-04T03:32:26;102655.28;;;7.42;78.00
71778;BME280;59609;52.430;4.668;2023-03-04T03:34:52;102652.13;;;7.48;76.92
71778;BME280;59609;52.430;4.668;2023-03-04T03:37:17;102650.47;;;7.46;77.51
71778;BME280;59609;52.430;4.668;2023-03-04T03:39:43;102654.09;;;7.46;77.24
71778;BME280;59609;52.430;4.668;2023-03-04T03:42:08;102651.16;;;7.49;77.88
71778;BME280;59609;52.430;4.668;2023-03-04T03:44:34;102658.41;;;7.50;78.30
71778;BME280;59609;52.430;4.668;2023-03-04T03:46:59;102654.00;;;7.48;78.50
71778;BME280;59609;52.430;4.668;2023-03-04T03:49:24;102654.09;;;7.46;79.10
71778;BME280;59609;52.430;4.668;2023-03-04T03:51:50;102659.81;;;7.43;79.26
71778;BME280;59609;52.430;4.668;2023-03-04T03:54:15;102656.72;;;7.48;78.51
71778;BME280;59609;52.430;4.668;2023-03-04T03:56:40;102653.63;;;7.40;79.27
71778;BME280;59609;52.430;4.668;2023-03-04T03:59:06;102646.84;;;7.45;79.13
71778;BME280;59609;52.430;4.668;2023-03-04T04:01:31;102646.75;;;7.47;79.48
71778;BME280;59609;52.430;4.668;2023-03-04T04:03:58;102649.09;;;7.53;78.99
71778;BME280;59609;52.430;4.668;2023-03-04T04:06:23;102648.41;;;7.49;79.73
71778;BME280;59609;52.430;4.668;2023-03-04T04:08:49;102641.75;;;7.53;78.66
71778;BME280;59609;52.430;4.668;2023-03-04T04:11:15;102647.91;;;7.57;78.71
71778;BME280;59609;52.430;4.668;2023-03-04T04:13:41;102651.38;;;7.46;78.89
71778;BME280;59609;52.430;4.668;2023-03-04T04:16:07;102639.78;;;7.55;79.02
71778;BME280;59609;52.430;4.668;2023-03-04T04:18:32;102645.41;;;7.66;78.10
71778;BME280;59609;52.430;4.668;2023-03-04T04:20:57;102648.97;;;7.54;78.84
71778;BME280;59609;52.430;4.668;2023-03-04T04:23:23;102641.53;;;7.56;79.38
71778;BME280;59609;52.430;4.668;2023-03-04T04:25:48;102648.97;;;7.54;81.15
71778;BME280;59609;52.430;4.668;2023-03-04T04:28:13;102641.28;;;7.47;83.22
71778;BME280;59609;52.430;4.668;2023-03-04T04:30:39;102642.13;;;7.47;83.68
71778;BME280;59609;52.430;4.668;2023-03-04T04:33:04;102642.25;;;7.46;83.88
71778;BME280;59609;52.430;4.668;2023-03-04T04:35:34;102646.59;;;7.62;83.10
71778;BME280;59609;52.430;4.668;2023-03-04T04:38:00;102640.94;;;7.51;83.45
71778;BME280;59609;52.430;4.668;2023-03-04T04:40:26;102640.16;;;7.63;83.40
71778;BME280;59609;52.430;4.668;2023-03-04T04:42:51;102636.59;;;7.61;82.92
71778;BME280;59609;52.430;4.668;2023-03-04T04:45:17;102639.69;;;7.57;83.50
71778;BME280;59609;52.430;4.668;2023-03-04T04:47:42;102638.59;;;7.59;83.52
71778;BME280;59609;52.430;4.668;2023-03-04T04:50:08;102637.63;;;7.60;83.14
71778;BME280;59609;52.430;4.668;2023-03-04T04:52:33;102636.59;;;7.61;83.25
71778;BME280;59609;52.430;4.668;2023-03-04T04:54:59;102640.00;;;7.38;83.02
71778;BME280;59609;52.430;4.668;2023-03-04T04:57:24;102645.63;;;7.63;82.12
71778;BME280;59609;52.430;4.668;2023-03-04T04:59:50;102654.25;;;7.57;82.29
71778;BME280;59609;52.430;4.668;2023-03-04T05:02:15;102655.00;;;7.47;81.82
71778;BME280;59609;52.430;4.668;2023-03-04T05:04:40;102645.25;;;7.55;79.79
71778;BME280;59609;52.430;4.668;2023-03-04T05:07:06;102644.75;;;7.63;78.63
71778;BME280;59609;52.430;4.668;2023-03-04T05:09:31;102645.66;;;7.49;79.21
71778;BME280;59609;52.430;4.668;2023-03-04T05:11:56;102644.09;;;7.45;78.58
71778;BME280;59609;52.430;4.668;2023-03-04T05:14:22;102645.94;;;7.59;77.69
71778;BME280;59609;52.430;4.668;2023-03-04T05:16:47;102641.53;;;7.56;77.97
71778;BME280;59609;52.430;4.668;2023-03-04T05:19:13;102649.34;;;7.62;77.84
71778;BME280;59609;52.430;4.668;2023-03-04T05:21:38;102648.16;;;7.66;77.77
71778;BME280;59609;52.430;4.668;2023-03-04T05:24:03;102645.84;;;7.60;77.73
71778;BME280;59609;52.430;4.668;2023-03-04T05:26:29;102654.41;;;7.68;77.80
71778;BME280;59609;52.430;4.668;2023-03-04T05:28:54;102651.38;;;7.73;76.68
71778;BME280;59609;52.430;4.668;2023-03-04T05:31:20;102643.69;;;7.78;77.12
71778;BME280;59609;52.430;4.668;2023-03-04T05:33:45;102655.97;;;7.72;77.95
71778;BME280;59609;52.430;4.668;2023-03-04T05:36:11;102662.44;;;7.71;77.55
71778;BME280;59609;52.430;4.668;2023-03-04T05:38:36;102647.75;;;7.72;77.42
71778;BME280;59609;52.430;4.668;2023-03-04T05:41:04;102656.53;;;7.77;77.28
71778;BME280;59609;52.430;4.668;2023-03-04T05:43:30;102653.56;;;7.81;77.32
71778;BME280;59609;52.430;4.668;2023-03-04T05:45:56;102644.03;;;7.73;77.54
71778;BME280;59609;52.430;4.668;2023-03-04T05:48:21;102650.78;;;7.68;78.22
71778;BME280;59609;52.430;4.668;2023-03-04T05:50:55;102647.53;;;7.75;78.46
71778;BME280;59609;52.430;4.668;2023-03-04T05:53:22;102651.81;;;7.80;78.03
71778;BME280;59609;52.430;4.668;2023-03-04T05:55:48;102634.44;;;7.66;78.86
71778;BME280;59609;52.430;4.668;2023-03-04T05:58:14;102644.41;;;7.67;79.59
71778;BME280;59609;52.430;4.668;2023-03-04T06:00:39;102640.59;;;7.70;79.97
71778;BME280;59609;52.430;4.668;2023-03-04T06:03:05;102635.56;;;7.76;79.86
71778;BME280;59609;52.430;4.668;2023-03-04T06:05:30;102646.84;;;7.72;80.88
71778;BME280;59609;52.430;4.668;2023-03-04T06:07:55;102647.75;;;7.72;81.08
71778;BME280;59609;52.430;4.668;2023-03-04T06:10:21;102633.34;;;7.69;81.81
71778;BME280;59609;52.430;4.668;2023-03-04T06:12:46;102646.31;;;7.67;82.75
71778;BME280;59609;52.430;4.668;2023-03-04T06:15:12;102647.38;;;7.64;83.39
71778;BME280;59609;52.430;4.668;2023-03-04T06:17:38;102651.47;;;7.71;84.26
71778;BME280;59609;52.430;4.668;2023-03-04T06:20:05;102645.50;;;7.65;86.24
71778;BME280;59609;52.430;4.668;2023-03-04T06:22:32;102643.22;;;7.45;90.45
71778;BME280;59609;52.430;4.668;2023-03-04T06:24:57;102648.03;;;7.41;93.28
71778;BME280;59609;52.430;4.668;2023-03-04T06:27:22;102648.50;;;7.48;93.27
71778;BME280;59609;52.430;4.668;2023-03-04T06:29:48;102633.09;;;7.33;93.04
71778;BME280;59609;52.430;4.668;2023-03-04T06:32:13;102646.59;;;7.36;93.36
71778;BME280;59609;52.430;4.668;2023-03-04T06:34:38;102647.34;;;7.38;93.86
71778;BME280;59609;52.430;4.668;2023-03-04T06:37:04;102654.19;;;7.45;93.75
71778;BME280;59609;52.430;4.668;2023-03-04T06:39:29;102647.75;;;7.46;93.19
71778;BME280;59609;52.430;4.668;2023-03-04T06:41:54;102646.28;;;7.40;92.87
71778;BME280;59609;52.430;4.668;2023-03-04T06:44:20;102654.81;;;7.36;93.00
71778;BME280;59609;52.430;4.668;2023-03-04T06:46:45;102658.00;;;7.56;92.85
71778;BME280;59609;52.430;4.668;2023-03-04T06:49:11;102652.50;;;7.56;91.85
71778;BME280;59609;52.430;4.668;2023-03-04T06:51:36;102661.19;;;7.63;91.27
71778;BME280;59609;52.430;4.668;2023-03-04T06:54:02;102654.06;;;7.60;91.22
71778;BME280;59609;52.430;4.668;2023-03-04T06:56:27;102658.88;;;7.57;91.73
71778;BME280;59609;52.430;4.668;2023-03-04T06:58:52;102670.66;;;7.71;91.42
71778;BME280;59609;52.430;4.668;2023-03-04T07:01:21;102679.06;;;7.83;91.61
71778;BME280;59609;52.430;4.668;2023-03-04T07:03:48;102670.66;;;7.71;91.45
71778;BME280;59609;52.430;4.668;2023-03-04T07:06:16;102671.13;;;7.51;93.89
71778;BME280;59609;52.430;4.668;2023-03-04T07:08:43;102667.03;;;7.71;93.56
71778;BME280;59609;52.430;4.668;2023-03-04T07:11:09;102668.84;;;7.85;92.92
71778;BME280;59609;52.430;4.668;2023-03-04T07:13:35;102676.06;;;7.73;92.99
71778;BME280;59609;52.430;4.668;2023-03-04T07:16:07;102677.63;;;7.77;93.67
71778;BME280;59609;52.430;4.668;2023-03-04T07:18:32;102679.44;;;8.03;92.90
71778;BME280;59609;52.430;4.668;2023-03-04T07:20:58;102673.53;;;8.09;91.87
71778;BME280;59609;52.430;4.668;2023-03-04T07:23:23;102679.91;;;8.10;92.79
71778;BME280;59609;52.430;4.668;2023-03-04T07:25:49;102672.63;;;7.96;93.88
71778;BME280;59609;52.430;4.668;2023-03-04T07:28:15;102679.38;;;7.91;95.90
71778;BME280;59609;52.430;4.668;2023-03-04T07:30:41;102683.09;;;8.04;95.85
71778;BME280;59609;52.430;4.668;2023-03-04T07:33:06;102680.34;;;8.04;95.80
71778;BME280;59609;52.430;4.668;2023-03-04T07:35:31;102678.44;;;8.04;95.96
71778;BME280;59609;52.430;4.668;2023-03-04T07:37:57;102686.38;;;8.09;97.21
71778;BME280;59609;52.430;4.668;2023-03-04T07:40:22;102679.78;;;8.11;96.33
71778;BME280;59609;52.430;4.668;2023-03-04T07:42:51;102681.97;;;7.94;97.33
71778;BME280;59609;52.430;4.668;2023-03-04T07:45:18;102692.94;;;7.94;98.41
71778;BME280;59609;52.430;4.668;2023-03-04T07:47:43;102689.56;;;7.76;100.00
71778;BME280;59609;52.430;4.668;2023-03-04T07:50:10;102695.84;;;7.91;100.00
71778;BME280;59609;52.430;4.668;2023-03-04T07:52:40;102691.50;;;8.01;99.62
71778;BME280;59609;52.430;4.668;2023-03-04T07:55:08;102696.16;;;8.13;99.60
71778;BME280;59609;52.430;4.668;2023-03-04T07:57:34;102692.22;;;8.17;99.45
71778;BME280;59609;52.430;4.668;2023-03-04T07:59:59;102694.28;;;8.40;99.02
71778;BME280;59609;52.430;4.668;2023-03-04T08:02:25;102673.66;;;8.47;98.90
71778;BME280;59609;52.430;4.668;2023-03-04T08:04:50;102690.34;;;8.57;98.41
71778;BME280;59609;52.430;4.668;2023-03-04T08:07:18;102678.38;;;8.70;97.67
71778;BME280;59609;52.430;4.668;2023-03-04T08:09:43;102680.13;;;8.71;96.95
71778;BME280;59609;52.430;4.668;2023-03-04T08:12:09;102687.38;;;8.47;97.27
71778;BME280;59609;52.430;4.668;2023-03-04T08:14:34;102693.53;;;8.63;97.25
71778;BME280;59609;52.430;4.668;2023-03-04T08:17:00;102692.22;;;8.69;96.66
71778;BME280;59609;52.430;4.668;2023-03-04T08:19:25;102683.63;;;8.99;95.68
71778;BME280;59609;52.430;4.668;2023-03-04T08:21:50;102682.31;;;8.79;95.36
71778;BME280;59609;52.430;4.668;2023-03-04T08:24:16;102683.50;;;8.88;95.15
71778;BME280;59609;52.430;4.668;2023-03-04T08:26:44;102680.88;;;8.99;94.58
71778;BME280;59609;52.430;4.668;2023-03-04T08:29:14;102681.09;;;8.96;95.95
71778;BME280;59609;52.430;4.668;2023-03-04T08:31:42;102682.94;;;9.08;95.13
71778;BME280;59609;52.430;4.668;2023-03-04T08:34:11;102689.53;;;9.18;93.35
71778;BME280;59609;52.430;4.668;2023-03-04T08:36:37;102688.50;;;9.31;92.49
71778;BME280;59609;52.430;4.668;2023-03-04T08:39:03;102684.91;;;9.18;93.18
71778;BME280;59609;52.430;4.668;2023-03-04T08:41:29;102696.47;;;9.23;92.05
71778;BME280;59609;52.430;4.668;2023-03-04T08:43:54;102691.38;;;9.17;92.71
71778;BME280;59609;52.430;4.668;2023-03-04T08:46:20;102688.53;;;9.19;92.62
71778;BME280;59609;52.430;4.668;2023-03-04T08:48:45;102688.63;;;9.17;93.98
71778;BME280;59609;52.430;4.668;2023-03-04T08:51:12;102700.94;;;9.37;92.91
71778;BME280;59609;52.430;4.668;2023-03-04T08:53:38;102691.44;;;9.41;92.29
71778;BME280;59609;52.430;4.668;2023-03-04T08:56:04;102693.97;;;9.80;91.59
71778;BME280;59609;52.430;4.668;2023-03-04T08:58:30;102686.88;;;9.65;90.48
71778;BME280;59609;52.430;4.668;2023-03-04T09:00:58;102692.19;;;9.56;89.85
71778;BME280;59609;52.430;4.668;2023-03-04T09:03:25;102693.88;;;9.46;91.71
71778;BME280;59609;52.430;4.668;2023-03-04T09:05:50;102691.25;;;9.68;91.29
71778;BME280;59609;52.430;4.668;2023-03-04T09:08:16;102691.19;;;9.20;94.82
71778;BME280;59609;52.430;4.668;2023-03-04T09:10:42;102692.25;;;9.43;94.88
71778;BME280;59609;52.430;4.668;2023-03-04T09:13:08;102688.53;;;9.19;95.69
71778;BME280;59609;52.430;4.668;2023-03-04T09:15:36;102684.81;;;9.20;95.42
71778;BME280;59609;52.430;4.668;2023-03-04T09:18:03;102696.03;;;9.17;94.48
71778;BME280;59609;52.430;4.668;2023-03-04T09:20:29;102685.06;;;9.53;94.52
71778;BME280;59609;52.430;4.668;2023-03-04T09:22:55;102690.09;;;9.59;94.73
71778;BME280;59609;52.430;4.668;2023-03-04T09:25:20;102686.56;;;9.81;93.79
71778;BME280;59609;52.430;4.668;2023-03-04T09:27:46;102684.47;;;10.32;93.30
71778;BME280;59609;52.430;4.668;2023-03-04T09:30:12;102691.34;;;10.26;91.35
71778;BME280;59609;52.430;4.668;2023-03-04T09:32:37;102676.31;;;10.76;89.87
71778;BME280;59609;52.430;4.668;2023-03-04T09:35:03;102689.09;;;11.11;86.82
71778;BME280;59609;52.430;4.668;2023-03-04T09:37:29;102676.94;;;11.02;86.12
71778;BME280;59609;52.430;4.668;2023-03-04T09:39:54;102669.06;;;10.87;86.21
71778;BME280;59609;52.430;4.668;2023-03-04T09:42:27;102682.81;;;10.98;85.85
71778;BME280;59609;52.430;4.668;2023-03-04T09:44:54;102684.81;;;10.84;86.48
71778;BME280;59609;52.430;4.668;2023-03-04T09:47:22;102667.03;;;10.66;87.07
71778;BME280;59609;52.430;4.668;2023-03-04T09:49:57;102667.22;;;10.52;87.20
71778;BME280;59609;52.430;4.668;2023-03-04T09:55:39;102669.28;;;10.72;86.29
71778;BME280;59609;52.430;4.668;2023-03-04T10:01:09;102678.28;;;10.63;86.90
71778;BME280;59609;52.430;4.668;2023-03-04T10:03:49;102678.72;;;10.11;91.73
71778;BME280;59609;52.430;4.668;2023-03-04T10:06:17;102682.59;;;9.85;91.15
71778;BME280;59609;52.430;4.668;2023-03-04T10:21:45;102668.63;;;10.58;89.58
71778;BME280;59609;52.430;4.668;2023-03-04T10:24:16;102666.78;;;10.92;87.06
71778;BME280;59609;52.430;4.668;2023-03-04T10:26:47;102667.78;;;10.79;87.22
71778;BME280;59609;52.430;4.668;2023-03-04T10:29:17;102678.22;;;10.87;86.94
71778;BME280;59609;52.430;4.668;2023-03-04T10:31:43;102668.66;;;10.91;84.81
71778;BME280;59609;52.430;4.668;2023-03-04T10:34:10;102670.19;;;11.17;84.66
71778;BME280;59609;52.430;4.668;2023-03-04T10:36:55;102672.75;;;11.63;83.48
71778;BME280;59609;52.430;4.668;2023-03-04T10:39:28;102666.19;;;11.64;82.12
71778;BME280;59609;52.430;4.668;2023-03-04T10:41:59;102668.13;;;11.53;82.38
71778;BME280;59609;52.430;4.668;2023-03-04T10:44:25;102669.28;;;11.50;83.27
71778;BME280;59609;52.430;4.668;2023-03-04T10:46:53;102660.38;;;10.91;83.52
71778;BME280;59609;52.430;4.668;2023-03-04T10:49:19;102663.75;;;10.72;83.44
71778;BME280;59609;52.430;4.668;2023-03-04T10:52:16;102667.00;;;10.77;84.84
71778;BME280;59609;52.430;4.668;2023-03-04T10:54:51;102666.53;;;11.06;84.09
71778;BME280;59609;52.430;4.668;2023-03-04T10:57:20;102662.78;;;11.07;83.36
71778;BME280;59609;52.430;4.668;2023-03-04T10:59:58;102667.28;;;11.19;82.49
71778;BME280;59609;52.430;4.668;2023-03-04T11:02:32;102669.31;;;10.83;83.05
71778;BME280;59609;52.430;4.668;2023-03-04T11:05:20;102656.50;;;11.16;81.37
71778;BME280;59609;52.430;4.668;2023-03-04T11:07:59;102660.88;;;11.41;81.12
71778;BME280;59609;52.430;4.668;2023-03-04T11:10:37;102662.03;;;11.16;80.07
71778;BME280;59609;52.430;4.668;2023-03-04T11:13:23;102656.00;;;11.44;79.55
71778;BME280;59609;52.430;4.668;2023-03-04T11:20:51;102649.47;;;11.12;78.12
71778;BME280;59609;52.430;4.668;2023-03-04T11:25:47;102645.81;;;11.45;76.45
71778;BME280;59609;52.430;4.668;2023-03-04T11:28:21;102647.41;;;11.58;76.37
71778;BME280;59609;52.430;4.668;2023-03-04T11:30:57;102657.25;;;11.29;76.14
71778;BME280;59609;52.430;4.668;2023-03-04T11:33:35;102651.88;;;10.83;73.89
71778;BME280;59609;52.430;4.668;2023-03-04T11:38:58;102662.06;;;10.37;75.05
71778;BME280;59609;52.430;4.668;2023-03-04T11:43:59;102637.22;;;10.82;72.45
71778;BME280;59609;52.430;4.668;2023-03-04T11:51:44;102648.34;;;11.36;71.56
71778;BME280;59609;52.430;4.668;2023-03-04T11:55:03;102647.09;;;11.29;70.54
71778;BME280;59609;52.430;4.668;2023-03-04T12:02:59;102638.06;;;11.05;69.04
71778;BME280;59609;52.430;4.668;2023-03-04T12:11:05;102626.63;;;11.43;66.23
71778;BME280;59609;52.430;4.668;2023-03-04T12:30:00;102622.47;;;11.37;65.97
71778;BME280;59609;52.430;4.668;2023-03-04T12:32:39;102625.84;;;11.52;66.63
71778;BME280;59609;52.430;4.668;2023-03-04T12:38:04;102619.06;;;11.56;64.33
71778;BME280;59609;52.430;4.668;2023-03-04T12:40:59;102614.28;;;11.58;64.49
71778;BME280;59609;52.430;4.668;2023-03-04T12:43:34;102604.19;;;11.68;63.95
71778;BME280;59609;52.430;4.668;2023-03-04T12:48:36;102599.22;;;11.62;65.50
71778;BME280;59609;52.430;4.668;2023-03-04T12:56:44;102588.44;;;11.59;64.64
71778;BME280;59609;52.430;4.668;2023-03-04T12:59:15;102593.84;;;11.61;64.41
71778;BME280;59609;52.430;4.668;2023-03-04T13:04:56;102574.31;;;11.42;65.19
71778;BME280;59609;52.430;4.668;2023-03-04T13:07:52;102582.94;;;11.48;65.09
71778;BME280;59609;52.430;4.668;2023-03-04T13:10:20;102572.25;;;11.55;65.88
71778;BME280;59609;52.430;4.668;2023-03-04T13:12:48;102584.88;;;11.36;66.53
71778;BME280;59609;52.430;4.668;2023-03-04T13:17:57;102584.09;;;10.80;69.44
71778;BME280;59609;52.430;4.668;2023-03-04T13:23:00;102582.28;;;10.35;71.19
71778;BME280;59609;52.430;4.668;2023-03-04T13:25:40;102578.41;;;10.38;71.97
71778;BME280;59609;52.430;4.668;2023-03-04T14:01:55;102543.31;;;10.28;70.98
71778;BME280;59609;52.430;4.668;2023-03-04T14:04:27;102543.22;;;10.63;70.26
71778;BME280;59609;52.430;4.668;2023-03-04T14:06:55;102544.22;;;10.73;68.07
71778;BME280;59609;52.430;4.668;2023-03-04T14:09:33;102546.47;;;10.79;66.26
71778;BME280;59609;52.430;4.668;2023-03-04T14:12:04;102542.22;;;10.53;65.96
71778;BME280;59609;52.430;4.668;2023-03-04T14:14:45;102540.19;;;10.89;64.48
71778;BME280;59609;52.430;4.668;2023-03-04T14:17:27;102546.16;;;11.16;62.81
71778;BME280;59609;52.430;4.668;2023-03-04T14:19:53;102542.16;;;10.98;62.61
71778;BME280;59609;52.430;4.668;2023-03-04T14:22:35;102545.09;;;10.52;63.20
71778;BME280;59609;52.430;4.668;2023-03-04T14:27:43;102536.22;;;10.59;63.89
71778;BME280;59609;52.430;4.668;2023-03-04T14:30:22;102541.97;;;10.34;66.43
71778;BME280;59609;52.430;4.668;2023-03-04T14:32:48;102537.72;;;10.30;68.54
71778;BME280;59609;52.430;4.668;2023-03-04T14:35:19;102544.78;;;10.10;72.21
71778;BME280;59609;52.430;4.668;2023-03-04T14:37:52;102540.19;;;9.76;73.58
71778;BME280;59609;52.430;4.668;2023-03-04T14:40:23;102534.50;;;10.12;71.23
71778;BME280;59609;52.430;4.668;2023-03-04T14:42:55;102531.63;;;10.03;71.55
71778;BME280;59609;52.430;4.668;2023-03-04T14:45:22;102527.13;;;10.13;72.01
71778;BME280;59609;52.430;4.668;2023-03-04T14:47:48;102532.81;;;10.45;70.30
71778;BME280;59609;52.430;4.668;2023-03-04T14:50:19;102528.00;;;10.13;70.59
71778;BME280;59609;52.430;4.668;2023-03-04T14:52:49;102522.41;;;10.48;68.99
71778;BME280;59609;52.430;4.668;2023-03-04T14:55:29;102504.75;;;10.17;68.59
71778;BME280;59609;52.430;4.668;2023-03-04T14:58:20;102517.66;;;10.83;67.87
71778;BME280;59609;52.430;4.668;2023-03-04T15:00:47;102508.97;;;10.88;67.50
71778;BME280;59609;52.430;4.668;2023-03-04T15:05:40;102508.75;;;10.69;66.00
71778;BME280;59609;52.430;4.668;2023-03-04T15:08:21;102500.16;;;10.40;65.15
71778;BME280;59609;52.430;4.668;2023-03-04T15:11:01;102508.78;;;10.47;66.08